sensor_id;sensor_type;location;lat;lon;timestamp;pressure;altitude;pressure_sealevel;temperature;humidity
84445;BME280;74683;48.402;10.596;2024-01-15T00:00:11;95385.31;;;-4.71;87.46
84445;BME280;74683;48.402;10.596;2024-01-15T00:02:37;95389.06;;;-4.72;87.53
84445;BME280;74683;48.402;10.596;2024-01-15T00:05:04;95392.06;;;-4.78;87.07
84445;BME280;74683;48.402;10.596;2024-01-15T00:07:31;95386.22;;;-4.85;87.80
84445;BME280;74683;48.402;10.596;2024-01-15T00:09:57;95392.41;;;-4.90;87.47
84445;BME280;74683;48.402;10.596;2024-01-15T00:12:24;95379.53;;;-4.88;87.47
84445;BME280;74683;48.402;10.596;2024-01-15T00:14:51;95387.56;;;-4.88;87.42
84445;BME280;74683;48.402;10.596;2024-01-15T00:17:17;95384.91;;;-4.93;87.29
84445;BME280;74683;48.402;10.596;2024-01-15T00:19:44;95376.66;;;-5.02;87.27
84445;BME280;74683;48.402;10.596;2024-01-15T00:22:11;95387.66;;;-5.03;88.14
84445;BME280;74683;48.402;10.596;2024-01-15T00:24:37;95379.38;;;-5.07;87.94
84445;BME280;74683;48.402;10.596;2024-01-15T00:27:04;95375.63;;;-5.06;87.87
84445;BME280;74683;48.402;10.596;2024-01-15T00:29:31;95377.78;;;-5.08;88.16
84445;BME280;74683;48.402;10.596;2024-01-15T00:31:58;95364.91;;;-5.06;88.12
84445;BME280;74683;48.402;10.596;2024-01-15T00:34:24;95375.34;;;-5.04;88.07
84445;BME280;74683;48.402;10.596;2024-01-15T00:36:51;95368.38;;;-5.05;87.47
84445;BME280;74683;48.402;10.596;2024-01-15T00:39:17;95370.56;;;-5.07;87.06
84445;BME280;74683;48.402;10.596;2024-01-15T00:41:44;95368.97;;;-5.13;87.21
84445;BME280;74683;48.402;10.596;2024-01-15T00:44:11;95359.63;;;-5.16;87.34
84445;BME280;74683;48.402;10.596;2024-01-15T00:46:45;95358.53;;;-5.10;87.67
84445;BME280;74683;48.402;10.596;2024-01-15T00:49:15;95361.16;;;-5.05;87.18
84445;BME280;74683;48.402;10.596;2024-01-15T00:51:42;95354.69;;;-4.99;86.68
84445;BME280;74683;48.402;10.596;2024-01-15T00:54:09;95356.00;;;-4.96;87.11
84445;BME280;74683;48.402;10.596;2024-01-15T00:56:36;95358.41;;;-4.95;86.54
84445;BME280;74683;48.402;10.596;2024-01-15T00:59:03;95363.97;;;-4.86;85.88
84445;BME280;74683;48.402;10.596;2024-01-15T01:01:29;95370.34;;;-4.82;85.67
84445;BME280;74683;48.402;10.596;2024-01-15T01:03:56;95369.53;;;-4.77;84.82
84445;BME280;74683;48.402;10.596;2024-01-15T01:06:23;95373.72;;;-4.61;84.97
84445;BME280;74683;48.402;10.596;2024-01-15T01:08:50;95381.41;;;-4.54;84.41
84445;BME280;74683;48.402;10.596;2024-01-15T01:11:16;95379.19;;;-4.42;83.83
84445;BME280;74683;48.402;10.596;2024-01-15T01:13:43;95379.59;;;-4.30;83.07
84445;BME280;74683;48.402;10.596;2024-01-15T01:16:10;95377.84;;;-4.16;83.15
84445;BME280;74683;48.402;10.596;2024-01-15T01:18:37;95373.22;;;-4.10;82.98
84445;BME280;74683;48.402;10.596;2024-01-15T01:21:04;95386.59;;;-4.05;82.87
84445;BME280;74683;48.402;10.596;2024-01-15T01:23:30;95389.53;;;-4.01;82.64
84445;BME280;74683;48.402;10.596;2024-01-15T01:25:57;95382.78;;;-3.99;82.82
84445;BME280;74683;48.402;10.596;2024-01-15T01:28:24;95388.09;;;-3.94;82.47
84445;BME280;74683;48.402;10.596;2024-01-15T01:30:50;95373.31;;;-3.91;82.30
84445;BME280;74683;48.402;10.596;2024-01-15T01:33:17;95384.78;;;-3.86;81.64
84445;BME280;74683;48.402;10.596;2024-01-15T01:35:44;95384.16;;;-3.78;82.30
84445;BME280;74683;48.402;10.596;2024-01-15T01:38:12;95389.25;;;-3.76;81.85
84445;BME280;74683;48.402;10.596;2024-01-15T01:40:38;95389.25;;;-3.76;81.92
84445;BME280;74683;48.402;10.596;2024-01-15T01:43:05;95367.75;;;-3.76;81.90
84445;BME280;74683;48.402;10.596;2024-01-15T01:45:32;95367.75;;;-3.76;81.83
84445;BME280;74683;48.402;10.596;2024-01-15T01:48:00;95381.75;;;-3.79;80.88
84445;BME280;74683;48.402;10.596;2024-01-15T01:50:31;95378.31;;;-3.85;81.50
84445;BME280;74683;48.402;10.596;2024-01-15T01:52:59;95368.75;;;-3.91;81.59
84445;BME280;74683;48.402;10.596;2024-01-15T01:55:27;95372.50;;;-3.92;81.95
84445;BME280;74683;48.402;10.596;2024-01-15T01:57:55;95367.69;;;-3.95;81.84
84445;BME280;74683;48.402;10.596;2024-01-15T02:00:23;95364.28;;;-4.00;82.00
84445;BME280;74683;48.402;10.596;2024-01-15T02:02:50;95361.59;;;-4.00;82.00
84445;BME280;74683;48.402;10.596;2024-01-15T02:05:18;95365.41;;;-4.07;81.41
84445;BME280;74683;48.402;10.596;2024-01-15T02:07:46;95355.97;;;-4.04;81.54
84445;BME280;74683;48.402;10.596;2024-01-15T02:10:13;95358.94;;;-4.06;81.37
84445;BME280;74683;48.402;10.596;2024-01-15T02:12:43;95361.13;;;-4.08;81.82
84445;BME280;74683;48.402;10.596;2024-01-15T02:15:10;95353.88;;;-4.07;82.34
84445;BME280;74683;48.402;10.596;2024-01-15T02:17:59;95358.50;;;-4.13;82.15
84445;BME280;74683;48.402;10.596;2024-01-15T02:20:27;95357.25;;;-4.20;81.71
84445;BME280;74683;48.402;10.596;2024-01-15T02:22:53;95356.94;;;-4.19;82.38
84445;BME280;74683;48.402;10.596;2024-01-15T02:25:20;95358.06;;;-4.25;82.80
84445;BME280;74683;48.402;10.596;2024-01-15T02:27:47;95368.47;;;-4.18;82.59
84445;BME280;74683;48.402;10.596;2024-01-15T02:30:15;95374.94;;;-4.19;83.01
84445;BME280;74683;48.402;10.596;2024-01-15T02:32:42;95380.34;;;-4.24;82.77
84445;BME280;74683;48.402;10.596;2024-01-15T02:35:09;95373.16;;;-4.29;83.18
84445;BME280;74683;48.402;10.596;2024-01-15T02:37:35;95378.81;;;-4.30;83.02
84445;BME280;74683;48.402;10.596;2024-01-15T02:40:02;95384.72;;;-4.34;83.49
84445;BME280;74683;48.402;10.596;2024-01-15T02:42:29;95380.22;;;-4.38;83.18
84445;BME280;74683;48.402;10.596;2024-01-15T02:44:56;95374.28;;;-4.35;83.97
84445;BME280;74683;48.402;10.596;2024-01-15T02:47:23;95376.94;;;-4.35;83.42
84445;BME280;74683;48.402;10.596;2024-01-15T02:49:50;95372.38;;;-4.35;83.30
84445;BME280;74683;48.402;10.596;2024-01-15T02:52:16;95379.13;;;-4.37;83.64
84445;BME280;74683;48.402;10.596;2024-01-15T02:54:43;95375.94;;;-4.39;83.04
84445;BME280;74683;48.402;10.596;2024-01-15T02:57:10;95377.53;;;-4.38;83.75
84445;BME280;74683;48.402;10.596;2024-01-15T02:59:37;95379.44;;;-4.44;82.94
84445;BME280;74683;48.402;10.596;2024-01-15T03:02:03;95380.00;;;-4.47;83.85
84445;BME280;74683;48.402;10.596;2024-01-15T03:04:30;95388.34;;;-4.48;82.88
84445;BME280;74683;48.402;10.596;2024-01-15T03:06:57;95382.19;;;-4.49;83.54
84445;BME280;74683;48.402;10.596;2024-01-15T03:09:24;95380.38;;;-4.58;83.83
84445;BME280;74683;48.402;10.596;2024-01-15T03:11:50;95377.47;;;-4.62;83.45
84445;BME280;74683;48.402;10.596;2024-01-15T03:14:17;95378.28;;;-4.62;83.23
84445;BME280;74683;48.402;10.596;2024-01-15T03:16:44;95371.75;;;-4.55;83.20
84445;BME280;74683;48.402;10.596;2024-01-15T03:19:10;95371.75;;;-4.55;82.86
84445;BME280;74683;48.402;10.596;2024-01-15T03:21:37;95371.81;;;-4.60;83.79
84445;BME280;74683;48.402;10.596;2024-01-15T03:24:04;95370.47;;;-4.63;82.91
84445;BME280;74683;48.402;10.596;2024-01-15T03:26:31;95371.03;;;-4.61;83.34
84445;BME280;74683;48.402;10.596;2024-01-15T03:28:57;95368.09;;;-4.65;82.87
84445;BME280;74683;48.402;10.596;2024-01-15T03:31:24;95364.88;;;-4.67;82.95
84445;BME280;74683;48.402;10.596;2024-01-15T03:33:50;95364.59;;;-4.65;83.42
84445;BME280;74683;48.402;10.596;2024-01-15T03:36:17;95365.91;;;-4.63;83.11
84445;BME280;74683;48.402;10.596;2024-01-15T03:38:44;95357.13;;;-4.68;82.79
84445;BME280;74683;48.402;10.596;2024-01-15T03:41:11;95353.13;;;-4.71;83.17
84445;BME280;74683;48.402;10.596;2024-01-15T03:43:37;95359.59;;;-4.72;83.62
84445;BME280;74683;48.402;10.596;2024-01-15T03:46:04;95358.44;;;-4.66;83.84
84445;BME280;74683;48.402;10.596;2024-01-15T03:48:31;95371.28;;;-4.63;83.60
84445;BME280;74683;48.402;10.596;2024-01-15T03:50:58;95366.66;;;-4.52;83.42
84445;BME280;74683;48.402;10.596;2024-01-15T03:53:24;95365.50;;;-4.46;83.05
84445;BME280;74683;48.402;10.596;2024-01-15T03:55:51;95364.63;;;-4.36;83.23
84445;BME280;74683;48.402;10.596;2024-01-15T03:58:18;95368.06;;;-4.30;82.42
84445;BME280;74683;48.402;10.596;2024-01-15T04:00:45;95362.09;;;-4.22;82.71
84445;BME280;74683;48.402;10.596;2024-01-15T04:03:11;95368.19;;;-4.17;82.23
84445;BME280;74683;48.402;10.596;2024-01-15T04:05:38;95367.06;;;-4.11;82.12
84445;BME280;74683;48.402;10.596;2024-01-15T04:08:05;95366.19;;;-4.06;81.85
84445;BME280;74683;48.402;10.596;2024-01-15T04:10:32;95367.00;;;-4.06;81.48
84445;BME280;74683;48.402;10.596;2024-01-15T04:12:59;95358.94;;;-4.06;81.80
84445;BME280;74683;48.402;10.596;2024-01-15T04:15:27;95360.28;;;-4.03;82.09
84445;BME280;74683;48.402;10.596;2024-01-15T04:17:54;95357.31;;;-4.01;81.82
84445;BME280;74683;48.402;10.596;2024-01-15T04:20:21;95356.44;;;-3.97;81.03
84445;BME280;74683;48.402;10.596;2024-01-15T04:22:51;95352.16;;;-3.98;81.72
84445;BME280;74683;48.402;10.596;2024-01-15T04:25:17;95344.41;;;-3.99;81.16
84445;BME280;74683;48.402;10.596;2024-01-15T04:27:44;95349.25;;;-4.01;81.73
84445;BME280;74683;48.402;10.596;2024-01-15T04:30:11;95355.66;;;-3.97;81.84
84445;BME280;74683;48.402;10.596;2024-01-15T04:32:38;95349.69;;;-3.94;81.17
84445;BME280;74683;48.402;10.596;2024-01-15T04:35:04;95353.72;;;-3.92;81.28
84445;BME280;74683;48.402;10.596;2024-01-15T04:37:31;95356.91;;;-3.90;80.86
84445;BME280;74683;48.402;10.596;2024-01-15T04:39:57;95351.72;;;-3.81;80.77
84445;BME280;74683;48.402;10.596;2024-01-15T04:42:24;95355.72;;;-3.79;80.21
84445;BME280;74683;48.402;10.596;2024-01-15T04:44:51;95348.66;;;-3.75;80.12
84445;BME280;74683;48.402;10.596;2024-01-15T04:47:18;95352.41;;;-3.70;80.16
84445;BME280;74683;48.402;10.596;2024-01-15T04:49:44;95347.03;;;-3.70;80.01
84445;BME280;74683;48.402;10.596;2024-01-15T04:52:11;95352.63;;;-3.67;80.63
84445;BME280;74683;48.402;10.596;2024-01-15T04:54:39;95344.56;;;-3.67;80.67
84445;BME280;74683;48.402;10.596;2024-01-15T04:57:05;95342.16;;;-3.68;80.67
84445;BME280;74683;48.402;10.596;2024-01-15T04:59:32;95337.38;;;-3.71;80.58
84445;BME280;74683;48.402;10.596;2024-01-15T05:01:59;95343.53;;;-3.71;80.71
84445;BME280;74683;48.402;10.596;2024-01-15T05:04:25;95337.13;;;-3.75;80.83
84445;BME280;74683;48.402;10.596;2024-01-15T05:06:53;95330.75;;;-3.79;80.97
84445;BME280;74683;48.402;10.596;2024-01-15T05:09:19;95336.69;;;-3.82;81.23
84445;BME280;74683;48.402;10.596;2024-01-15T05:11:46;95331.34;;;-3.82;81.00
84445;BME280;74683;48.402;10.596;2024-01-15T05:14:13;95333.47;;;-3.84;81.07
84445;BME280;74683;48.402;10.596;2024-01-15T05:16:46;95333.78;;;-3.86;80.22
84445;BME280;74683;48.402;10.596;2024-01-15T05:19:13;95323.03;;;-3.86;81.39
84445;BME280;74683;48.402;10.596;2024-01-15T05:21:39;95319.03;;;-3.88;80.25
84445;BME280;74683;48.402;10.596;2024-01-15T05:24:07;95326.31;;;-3.89;81.06
84445;BME280;74683;48.402;10.596;2024-01-15T05:26:34;95327.06;;;-3.83;80.08
84445;BME280;74683;48.402;10.596;2024-01-15T05:29:01;95315.72;;;-3.80;81.00
84445;BME280;74683;48.402;10.596;2024-01-15T05:31:28;95322.41;;;-3.78;80.36
84445;BME280;74683;48.402;10.596;2024-01-15T05:33:55;95319.44;;;-3.76;79.93
84445;BME280;74683;48.402;10.596;2024-01-15T05:36:22;95322.63;;;-3.74;81.00
84445;BME280;74683;48.402;10.596;2024-01-15T05:38:49;95325.84;;;-3.72;80.31
84445;BME280;74683;48.402;10.596;2024-01-15T05:41:16;95329.03;;;-3.70;80.61
84445;BME280;74683;48.402;10.596;2024-01-15T05:43:43;95323.38;;;-3.68;80.43
84445;BME280;74683;48.402;10.596;2024-01-15T05:46:10;95315.03;;;-3.67;79.91
84445;BME280;74683;48.402;10.596;2024-01-15T05:48:36;95331.63;;;-3.65;79.96
84445;BME280;74683;48.402;10.596;2024-01-15T05:51:03;95326.00;;;-3.63;80.30
84445;BME280;74683;48.402;10.596;2024-01-15T05:53:30;95329.41;;;-3.58;79.25
84445;BME280;74683;48.402;10.596;2024-01-15T05:55:57;95324.50;;;-3.51;79.06
84445;BME280;74683;48.402;10.596;2024-01-15T05:58:23;95329.72;;;-3.40;79.05
84445;BME280;74683;48.402;10.596;2024-01-15T06:00:50;95327.03;;;-3.40;78.13
84445;BME280;74683;48.402;10.596;2024-01-15T06:03:17;95325.66;;;-3.38;78.42
84445;BME280;74683;48.402;10.596;2024-01-15T06:05:43;95333.41;;;-3.36;78.29
84445;BME280;74683;48.402;10.596;2024-01-15T06:08:10;95333.66;;;-3.33;78.30
84445;BME280;74683;48.402;10.596;2024-01-15T06:10:37;95329.09;;;-3.32;77.90
84445;BME280;74683;48.402;10.596;2024-01-15T06:13:04;95333.88;;;-3.29;78.16
84445;BME280;74683;48.402;10.596;2024-01-15T06:15:30;95331.91;;;-3.24;78.40
84445;BME280;74683;48.402;10.596;2024-01-15T06:17:57;95324.50;;;-3.13;77.56
84445;BME280;74683;48.402;10.596;2024-01-15T06:20:24;95324.34;;;-3.03;77.31
84445;BME280;74683;48.402;10.596;2024-01-15T06:22:50;95324.72;;;-2.91;77.81
84445;BME280;74683;48.402;10.596;2024-01-15T06:25:17;95326.13;;;-2.79;76.84
84445;BME280;74683;48.402;10.596;2024-01-15T06:27:43;95321.50;;;-2.74;76.68
84445;BME280;74683;48.402;10.596;2024-01-15T06:30:11;95323.78;;;-2.67;77.51
84445;BME280;74683;48.402;10.596;2024-01-15T06:32:38;95320.72;;;-2.61;77.12
84445;BME280;74683;48.402;10.596;2024-01-15T06:35:05;95308.28;;;-2.56;77.23
84445;BME280;74683;48.402;10.596;2024-01-15T06:37:32;95313.66;;;-2.56;77.43
84445;BME280;74683;48.402;10.596;2024-01-15T06:39:59;95311.19;;;-2.53;77.55
84445;BME280;74683;48.402;10.596;2024-01-15T06:42:26;95314.00;;;-2.44;77.37
84445;BME280;74683;48.402;10.596;2024-01-15T06:44:52;95312.31;;;-2.40;77.07
84445;BME280;74683;48.402;10.596;2024-01-15T06:47:19;95307.22;;;-2.42;77.25
84445;BME280;74683;48.402;10.596;2024-01-15T06:49:46;95305.53;;;-2.38;77.67
84445;BME280;74683;48.402;10.596;2024-01-15T06:52:12;95307.03;;;-2.32;76.75
84445;BME280;74683;48.402;10.596;2024-01-15T06:54:39;95310.53;;;-2.31;77.50
84445;BME280;74683;48.402;10.596;2024-01-15T06:57:06;95301.66;;;-2.32;76.90
84445;BME280;74683;48.402;10.596;2024-01-15T06:59:34;95291.00;;;-2.23;76.39
84445;BME280;74683;48.402;10.596;2024-01-15T07:02:01;95293.22;;;-2.25;76.79
84445;BME280;74683;48.402;10.596;2024-01-15T07:04:29;95296.41;;;-2.23;77.25
84445;BME280;74683;48.402;10.596;2024-01-15T07:06:55;95288.81;;;-2.21;76.93
84445;BME280;74683;48.402;10.596;2024-01-15T07:09:23;95287.94;;;-2.16;76.38
84445;BME280;74683;48.402;10.596;2024-01-15T07:11:49;95293.03;;;-2.15;75.99
84445;BME280;74683;48.402;10.596;2024-01-15T07:14:16;95285.75;;;-2.14;75.85
84445;BME280;74683;48.402;10.596;2024-01-15T07:16:43;95292.41;;;-2.12;75.45
84445;BME280;74683;48.402;10.596;2024-01-15T07:19:14;95289.41;;;-2.10;75.94
84445;BME280;74683;48.402;10.596;2024-01-15T07:21:40;95293.72;;;-2.09;75.71
84445;BME280;74683;48.402;10.596;2024-01-15T07:24:09;95286.13;;;-2.07;74.86
84445;BME280;74683;48.402;10.596;2024-01-15T07:26:37;95285.06;;;-2.06;74.67
84445;BME280;74683;48.402;10.596;2024-01-15T07:29:04;95276.38;;;-2.03;74.20
84445;BME280;74683;48.402;10.596;2024-01-15T07:31:30;95283.22;;;-1.97;73.93
84445;BME280;74683;48.402;10.596;2024-01-15T07:33:58;95286.16;;;-1.93;73.14
84445;BME280;74683;48.402;10.596;2024-01-15T07:36:30;95282.75;;;-1.85;72.57
84445;BME280;74683;48.402;10.596;2024-01-15T07:38:57;95284.03;;;-1.83;71.89
84445;BME280;74683;48.402;10.596;2024-01-15T07:41:24;95289.03;;;-1.76;71.17
84445;BME280;74683;48.402;10.596;2024-01-15T07:43:50;95282.13;;;-1.68;70.54
84445;BME280;74683;48.402;10.596;2024-01-15T07:46:17;95286.00;;;-1.61;70.38
84445;BME280;74683;48.402;10.596;2024-01-15T07:48:43;95282.13;;;-1.55;70.07
84445;BME280;74683;48.402;10.596;2024-01-15T07:51:10;95286.59;;;-1.50;71.08
84445;BME280;74683;48.402;10.596;2024-01-15T07:53:37;95286.28;;;-1.49;71.01
84445;BME280;74683;48.402;10.596;2024-01-15T07:56:04;95287.59;;;-1.46;71.36
84445;BME280;74683;48.402;10.596;2024-01-15T07:58:31;95285.09;;;-1.42;70.71
84445;BME280;74683;48.402;10.596;2024-01-15T08:00:58;95288.59;;;-1.42;71.09
84445;BME280;74683;48.402;10.596;2024-01-15T08:03:24;95286.69;;;-1.41;71.84
84445;BME280;74683;48.402;10.596;2024-01-15T08:05:51;95285.56;;;-1.40;71.66
84445;BME280;74683;48.402;10.596;2024-01-15T08:08:20;95282.56;;;-1.39;71.29
84445;BME280;74683;48.402;10.596;2024-01-15T08:10:47;95287.38;;;-1.36;72.00
84445;BME280;74683;48.402;10.596;2024-01-15T08:13:14;95291.97;;;-1.36;71.49
84445;BME280;74683;48.402;10.596;2024-01-15T08:15:41;95299.44;;;-1.33;71.37
84445;BME280;74683;48.402;10.596;2024-01-15T08:18:08;95296.75;;;-1.33;71.85
84445;BME280;74683;48.402;10.596;2024-01-15T08:20:39;95291.66;;;-1.35;71.85
84445;BME280;74683;48.402;10.596;2024-01-15T08:23:07;95290.56;;;-1.34;72.20
84445;BME280;74683;48.402;10.596;2024-01-15T08:25:34;95291.06;;;-1.32;72.24
84445;BME280;74683;48.402;10.596;2024-01-15T08:28:01;95303.91;;;-1.29;70.96
84445;BME280;74683;48.402;10.596;2024-01-15T08:30:27;95298.75;;;-1.25;70.90
84445;BME280;74683;48.402;10.596;2024-01-15T08:32:55;95301.44;;;-1.25;70.97
84445;BME280;74683;48.402;10.596;2024-01-15T08:35:30;95302.72;;;-1.23;70.71
84445;BME280;74683;48.402;10.596;2024-01-15T08:37:56;95313.19;;;-1.21;70.61
84445;BME280;74683;48.402;10.596;2024-01-15T08:40:24;95305.31;;;-1.18;70.35
84445;BME280;74683;48.402;10.596;2024-01-15T08:42:51;95308.50;;;-1.16;70.04
84445;BME280;74683;48.402;10.596;2024-01-15T08:45:17;95305.50;;;-1.14;69.80
84445;BME280;74683;48.402;10.596;2024-01-15T08:47:44;95301.38;;;-1.11;69.52
84445;BME280;74683;48.402;10.596;2024-01-15T08:50:10;95310.56;;;-1.12;70.27
84445;BME280;74683;48.402;10.596;2024-01-15T08:52:37;95301.88;;;-1.09;69.64
84445;BME280;74683;48.402;10.596;2024-01-15T08:55:04;95302.66;;;-1.09;70.21
84445;BME280;74683;48.402;10.596;2024-01-15T08:57:30;95303.47;;;-1.08;69.88
84445;BME280;74683;48.402;10.596;2024-01-15T08:59:57;95300.75;;;-1.08;69.05
84445;BME280;74683;48.402;10.596;2024-01-15T09:02:25;95312.06;;;-1.06;69.47
84445;BME280;74683;48.402;10.596;2024-01-15T09:04:52;95308.13;;;-1.00;68.97
84445;BME280;74683;48.402;10.596;2024-01-15T09:07:18;95298.53;;;-0.93;68.34
84445;BME280;74683;48.402;10.596;2024-01-15T09:09:57;95299.22;;;-0.87;68.21
84445;BME280;74683;48.402;10.596;2024-01-15T09:12:26;95294.19;;;-0.80;68.45
84445;BME280;74683;48.402;10.596;2024-01-15T09:14:53;95299.31;;;-0.70;68.41
84445;BME280;74683;48.402;10.596;2024-01-15T09:17:21;95299.69;;;-0.63;68.33
84445;BME280;74683;48.402;10.596;2024-01-15T09:19:55;95293.41;;;-0.58;68.03
84445;BME280;74683;48.402;10.596;2024-01-15T09:22:23;95290.69;;;-0.58;66.17
84445;BME280;74683;48.402;10.596;2024-01-15T09:24:50;95290.72;;;-0.49;66.33
84445;BME280;74683;48.402;10.596;2024-01-15T09:27:16;95286.00;;;-0.44;66.64
84445;BME280;74683;48.402;10.596;2024-01-15T09:29:43;95277.91;;;-0.44;66.03
84445;BME280;74683;48.402;10.596;2024-01-15T09:32:12;95267.16;;;-0.35;64.75
84445;BME280;74683;48.402;10.596;2024-01-15T09:34:39;95263.53;;;-0.31;64.12
84445;BME280;74683;48.402;10.596;2024-01-15T09:37:05;95263.09;;;-0.24;64.26
84445;BME280;74683;48.402;10.596;2024-01-15T09:39:32;95255.03;;;-0.15;63.32
84445;BME280;74683;48.402;10.596;2024-01-15T09:41:59;95257.63;;;-0.02;61.91
84445;BME280;74683;48.402;10.596;2024-01-15T09:44:27;95253.25;;;0.20;62.12
84445;BME280;74683;48.402;10.596;2024-01-15T09:46:55;95251.19;;;0.25;61.25
84445;BME280;74683;48.402;10.596;2024-01-15T09:49:22;95245.66;;;0.39;60.82
84445;BME280;74683;48.402;10.596;2024-01-15T09:51:50;95245.84;;;0.51;60.47
84445;BME280;74683;48.402;10.596;2024-01-15T09:54:31;95243.97;;;0.78;59.58
84445;BME280;74683;48.402;10.596;2024-01-15T09:57:00;95251.59;;;0.76;59.17
84445;BME280;74683;48.402;10.596;2024-01-15T09:59:27;95253.19;;;0.94;57.96
84445;BME280;74683;48.402;10.596;2024-01-15T10:01:55;95238.72;;;0.99;58.18
84445;BME280;74683;48.402;10.596;2024-01-15T10:04:22;95233.94;;;1.13;58.44
84445;BME280;74683;48.402;10.596;2024-01-15T10:06:51;95239.34;;;1.04;58.00
84445;BME280;74683;48.402;10.596;2024-01-15T10:09:18;95225.34;;;1.20;57.24
84445;BME280;74683;48.402;10.596;2024-01-15T10:11:45;95221.97;;;1.31;57.04
84445;BME280;74683;48.402;10.596;2024-01-15T10:14:12;95222.25;;;1.47;56.83
84445;BME280;74683;48.402;10.596;2024-01-15T10:16:39;95223.22;;;1.51;56.00
84445;BME280;74683;48.402;10.596;2024-01-15T10:19:07;95219.72;;;1.42;56.16
84445;BME280;74683;48.402;10.596;2024-01-15T10:21:35;95224.31;;;1.59;56.46
84445;BME280;74683;48.402;10.596;2024-01-15T10:24:03;95222.88;;;1.61;56.15
84445;BME280;74683;48.402;10.596;2024-01-15T10:26:31;95217.41;;;1.70;56.04
84445;BME280;74683;48.402;10.596;2024-01-15T10:28:59;95213.63;;;1.62;56.01
84445;BME280;74683;48.402;10.596;2024-01-15T10:31:27;95208.69;;;1.56;56.26
84445;BME280;74683;48.402;10.596;2024-01-15T10:34:14;95199.31;;;1.53;56.29
84445;BME280;74683;48.402;10.596;2024-01-15T10:36:45;95199.59;;;1.60;56.99
84445;BME280;74683;48.402;10.596;2024-01-15T10:39:16;95209.47;;;1.65;56.82
84445;BME280;74683;48.402;10.596;2024-01-15T10:41:46;95201.53;;;1.51;57.10
84445;BME280;74683;48.402;10.596;2024-01-15T10:44:15;95199.31;;;1.53;56.96
84445;BME280;74683;48.402;10.596;2024-01-15T10:46:45;95189.81;;;1.38;57.97
84445;BME280;74683;48.402;10.596;2024-01-15T10:49:12;95197.41;;;1.45;58.00
84445;BME280;74683;48.402;10.596;2024-01-15T10:51:40;95200.00;;;1.33;57.57
84445;BME280;74683;48.402;10.596;2024-01-15T10:54:08;95185.00;;;1.44;58.80
84445;BME280;74683;48.402;10.596;2024-01-15T10:56:39;95191.22;;;1.36;58.46
84445;BME280;74683;48.402;10.596;2024-01-15T10:59:06;95187.72;;;1.35;58.73
84445;BME280;74683;48.402;10.596;2024-01-15T11:01:34;95185.66;;;1.32;59.35
84445;BME280;74683;48.402;10.596;2024-01-15T11:04:02;95187.09;;;1.30;59.18
84445;BME280;74683;48.402;10.596;2024-01-15T11:06:41;95185.22;;;1.22;58.93
84445;BME280;74683;48.402;10.596;2024-01-15T11:09:09;95175.97;;;1.14;59.89
84445;BME280;74683;48.402;10.596;2024-01-15T11:11:40;95181.41;;;1.14;59.92
84445;BME280;74683;48.402;10.596;2024-01-15T11:14:07;95168.06;;;1.09;59.70
84445;BME280;74683;48.402;10.596;2024-01-15T11:16:54;95163.25;;;1.06;58.61
84445;BME280;74683;48.402;10.596;2024-01-15T11:19:21;95150.78;;;1.31;59.00
84445;BME280;74683;48.402;10.596;2024-01-15T11:21:49;95139.63;;;1.32;58.35
84445;BME280;74683;48.402;10.596;2024-01-15T11:24:34;95153.47;;;1.48;57.85
84445;BME280;74683;48.402;10.596;2024-01-15T11:27:04;95143.69;;;1.56;57.84
84445;BME280;74683;48.402;10.596;2024-01-15T11:29:33;95145.25;;;1.65;57.71
84445;BME280;74683;48.402;10.596;2024-01-15T11:32:08;95153.78;;;1.76;57.27
84445;BME280;74683;48.402;10.596;2024-01-15T11:34:57;95151.25;;;1.80;57.25
84445;BME280;74683;48.402;10.596;2024-01-15T11:37:27;95150.50;;;1.70;57.54
84445;BME280;74683;48.402;10.596;2024-01-15T11:39:56;95149.25;;;1.68;57.79
84445;BME280;74683;48.402;10.596;2024-01-15T11:42:23;95139.84;;;1.57;57.68
84445;BME280;74683;48.402;10.596;2024-01-15T11:44:50;95143.84;;;1.59;58.50
84445;BME280;74683;48.402;10.596;2024-01-15T11:48:11;95144.53;;;1.48;59.27
84445;BME280;74683;48.402;10.596;2024-01-15T11:50:14;95147.56;;;1.37;59.70
84445;BME280;74683;48.402;10.596;2024-01-15T11:52:46;95140.44;;;1.33;59.76
84445;BME280;74683;48.402;10.596;2024-01-15T11:55:22;95150.00;;;1.30;60.43
84445;BME280;74683;48.402;10.596;2024-01-15T11:57:52;95144.69;;;1.42;60.50
84445;BME280;74683;48.402;10.596;2024-01-15T12:00:22;95133.38;;;1.49;59.98
84445;BME280;74683;48.402;10.596;2024-01-15T12:02:50;95131.97;;;1.43;59.74
84445;BME280;74683;48.402;10.596;2024-01-15T12:05:19;95128.84;;;1.24;60.33
84445;BME280;74683;48.402;10.596;2024-01-15T12:07:47;95125.34;;;1.23;60.39
84445;BME280;74683;48.402;10.596;2024-01-15T12:10:16;95127.53;;;1.38;60.66
84445;BME280;74683;48.402;10.596;2024-01-15T12:15:32;95141.09;;;1.30;61.17
84445;BME280;74683;48.402;10.596;2024-01-15T12:18:00;95140.22;;;1.47;60.82
84445;BME280;74683;48.402;10.596;2024-01-15T12:20:30;95145.91;;;1.62;60.74
84445;BME280;74683;48.402;10.596;2024-01-15T12:22:57;95140.41;;;1.80;60.66
84445;BME280;74683;48.402;10.596;2024-01-15T12:25:30;95144.25;;;1.79;60.45
84445;BME280;74683;48.402;10.596;2024-01-15T12:27:58;95136.88;;;1.88;60.30
84445;BME280;74683;48.402;10.596;2024-01-15T12:30:27;95132.81;;;1.64;60.18
84445;BME280;74683;48.402;10.596;2024-01-15T12:32:54;95131.59;;;1.53;60.72
84445;BME280;74683;48.402;10.596;2024-01-15T12:35:23;95129.91;;;1.40;61.13
84445;BME280;74683;48.402;10.596;2024-01-15T12:37:50;95138.38;;;1.30;61.66
84445;BME280;74683;48.402;10.596;2024-01-15T12:40:21;95138.41;;;1.12;61.94
84445;BME280;74683;48.402;10.596;2024-01-15T12:42:49;95139.56;;;0.94;62.44
84445;BME280;74683;48.402;10.596;2024-01-15T12:45:15;95138.00;;;0.84;63.60
84445;BME280;74683;48.402;10.596;2024-01-15T12:47:42;95136.72;;;0.73;63.54
84445;BME280;74683;48.402;10.596;2024-01-15T12:50:10;95139.75;;;0.72;64.94
84445;BME280;74683;48.402;10.596;2024-01-15T12:52:45;95146.44;;;0.57;66.53
84445;BME280;74683;48.402;10.596;2024-01-15T12:55:13;95142.94;;;0.48;67.20
84445;BME280;74683;48.402;10.596;2024-01-15T12:57:40;95134.34;;;0.46;67.61